createdAt,value
2023-03-17T00:00:26.612Z,606.1
2023-03-17T00:01:29.110Z,606.3
2023-03-17T00:02:32.127Z,606.3
2023-03-17T00:03:34.829Z,606.4
2023-03-17T00:04:37.375Z,606.6
2023-03-17T00:05:39.884Z,606.8
2023-03-17T00:06:41.827Z,606.4
2023-03-17T00:07:44.392Z,606.6
2023-03-17T00:08:47.965Z,607
2023-03-17T00:09:50.467Z,606.8
2023-03-17T00:10:53.014Z,607
2023-03-17T00:11:55.676Z,607.4
2023-03-17T00:12:57.933Z,607.3
2023-03-17T00:14:00.154Z,607.7
2023-03-17T00:15:02.744Z,607.7
2023-03-17T00:16:05.008Z,607.8
2023-03-17T00:17:07.678Z,608.4
2023-03-17T00:18:10.288Z,608.4
2023-03-17T00:19:12.822Z,608.5
2023-03-17T00:20:15.059Z,608.5
2023-03-17T00:21:17.405Z,608.8
2023-03-17T00:22:19.966Z,608.8
2023-03-17T00:23:22.579Z,608.7
2023-03-17T00:24:24.552Z,608.6
2023-03-17T00:25:27.054Z,608.7
2023-03-17T00:26:29.345Z,608.9
2023-03-17T00:27:31.987Z,608.6
2023-03-17T00:28:34.525Z,608.9
2023-03-17T00:29:37.046Z,608.9
2023-03-17T00:30:39.572Z,608.8
2023-03-17T00:31:42.269Z,609.1
2023-03-17T00:32:44.980Z,608.5
2023-03-17T00:33:47.253Z,608.6
2023-03-17T00:34:49.798Z,608.7
2023-03-17T00:35:52.302Z,608.9
2023-03-17T00:36:54.650Z,609.2
2023-03-17T00:37:57.144Z,609.2
2023-03-17T00:38:59.719Z,609.3
2023-03-17T00:40:02.014Z,609.2
2023-03-17T00:41:04.545Z,609.5
2023-03-17T00:42:07.061Z,609.3
2023-03-17T00:43:09.661Z,609.6
2023-03-17T00:44:12.181Z,609.4
2023-03-17T00:45:14.386Z,609.8
2023-03-17T00:46:16.824Z,609.5
2023-03-17T00:47:19.033Z,609.5
2023-03-17T00:48:21.116Z,610.3
2023-03-17T00:49:23.412Z,610
2023-03-17T00:50:25.606Z,609.7
2023-03-17T00:51:28.120Z,609.7
2023-03-17T00:52:30.619Z,609.6
2023-03-17T00:53:33.105Z,609.8
2023-03-17T00:54:35.096Z,609.6
2023-03-17T00:55:37.601Z,609.8
2023-03-17T00:56:40.157Z,610
2023-03-17T00:57:42.639Z,610.2
2023-03-17T00:58:45.739Z,610.2
2023-03-17T00:59:48.252Z,609.7
2023-03-17T01:00:50.803Z,610.3
2023-03-17T01:01:53.126Z,609.9
2023-03-17T01:02:54.545Z,610.2
2023-03-17T01:03:57.027Z,610
2023-03-17T01:06:05.134Z,610.3
2023-03-17T01:07:07.970Z,610.4
2023-03-17T01:08:10.472Z,610.5
2023-03-17T01:09:12.677Z,610.7
2023-03-17T01:10:15.206Z,611.1
2023-03-17T01:11:17.740Z,611.2
2023-03-17T01:12:19.935Z,611.1
2023-03-17T01:13:22.152Z,611.2
2023-03-17T01:14:24.521Z,611.3
2023-03-17T01:15:27.078Z,611.1
2023-03-17T01:16:29.873Z,611.5
2023-03-17T01:17:31.848Z,611.7
2023-03-17T01:18:34.310Z,611.5
2023-03-17T01:19:36.843Z,611.5
2023-03-17T01:20:39.051Z,612
2023-03-17T01:21:41.328Z,611.7
2023-03-17T01:22:43.271Z,611.8
2023-03-17T01:23:45.760Z,612.2
2023-03-17T01:24:48.257Z,612.1
2023-03-17T01:25:50.777Z,612.1
2023-03-17T01:26:53.278Z,612.3
2023-03-17T01:27:55.770Z,612.5
2023-03-17T01:28:58.262Z,612.8
2023-03-17T01:30:00.903Z,612.7
2023-03-17T01:31:03.111Z,613
2023-03-17T01:32:05.675Z,613.3
2023-03-17T01:33:08.001Z,613.3
2023-03-17T01:34:10.282Z,613.6
2023-03-17T01:35:12.817Z,613.5
2023-03-17T01:36:14.994Z,613.8
2023-03-17T01:37:17.519Z,613.7
2023-03-17T01:38:20.100Z,614.2
2023-03-17T01:39:22.348Z,614
2023-03-17T01:40:24.575Z,614.1
2023-03-17T01:41:27.150Z,614.2
2023-03-17T01:42:29.690Z,614.5
2023-03-17T01:43:32.016Z,614.6
2023-03-17T01:44:34.269Z,614.5
2023-03-17T01:45:37.313Z,614.6
2023-03-17T01:46:39.554Z,614.7
2023-03-17T01:47:42.062Z,614.9
2023-03-17T01:48:44.287Z,614.7
2023-03-17T01:49:46.499Z,615.3
2023-03-17T01:50:48.985Z,615.3
2023-03-17T01:51:51.550Z,615.2
2023-03-17T01:52:54.095Z,615.2
2023-03-17T01:53:56.295Z,615.2
2023-03-17T01:54:58.547Z,615.5
2023-03-17T01:56:01.040Z,615.8
2023-03-17T01:57:03.560Z,615.6
2023-03-17T01:58:06.049Z,616
2023-03-17T01:59:08.640Z,616
2023-03-17T02:00:10.880Z,616
2023-03-17T02:01:13.764Z,616
2023-03-17T02:02:16.255Z,616.1
2023-03-17T02:03:18.808Z,615.8
2023-03-17T02:04:21.857Z,616
2023-03-17T02:05:23.947Z,615.9
2023-03-17T02:06:26.158Z,615.9
2023-03-17T02:07:28.125Z,616
2023-03-17T02:08:30.629Z,616.2
2023-03-17T02:09:32.830Z,617.1
2023-03-17T02:10:34.838Z,616.9
2023-03-17T02:11:37.341Z,617.4
2023-03-17T02:12:39.871Z,617.4
2023-03-17T02:13:42.255Z,617.8
2023-03-17T02:14:44.453Z,617.5
2023-03-17T02:15:46.959Z,618.2
2023-03-17T02:16:49.994Z,618.6
2023-03-17T02:17:52.575Z,618.7
2023-03-17T02:18:55.123Z,618.7
2023-03-17T02:19:57.651Z,618.9
2023-03-17T02:21:00.165Z,619.2
2023-03-17T02:22:02.400Z,619.4
2023-03-17T02:23:04.896Z,619.8
2023-03-17T02:24:07.399Z,619.6
2023-03-17T02:25:09.617Z,620.1
2023-03-17T02:26:11.657Z,620.5
2023-03-17T02:27:13.855Z,620.2
2023-03-17T02:28:16.077Z,620.7
2023-03-17T02:29:18.577Z,620.5
2023-03-17T02:30:21.112Z,620.7
2023-03-17T02:31:23.935Z,620.7
2023-03-17T02:32:26.901Z,620.1
2023-03-17T02:33:28.910Z,620.5
2023-03-17T02:34:30.881Z,620.5
2023-03-17T02:35:33.744Z,620.5
2023-03-17T02:36:36.533Z,620.1
2023-03-17T02:37:38.804Z,619.9
2023-03-17T02:38:41.337Z,620.1
2023-03-17T02:39:43.842Z,619.9
2023-03-17T02:40:46.067Z,620.4
2023-03-17T02:41:48.298Z,620.5
2023-03-17T02:42:50.522Z,620.8
2023-03-17T02:43:53.052Z,620.6
2023-03-17T02:44:55.311Z,620.5
2023-03-17T02:45:58.075Z,621
2023-03-17T02:47:00.599Z,620.8
2023-03-17T02:48:03.223Z,621.1
2023-03-17T02:49:05.463Z,620.8
2023-03-17T02:50:07.685Z,620.9
2023-03-17T02:51:10.185Z,620.7
2023-03-17T02:52:12.752Z,621.1
2023-03-17T02:53:15.249Z,621
2023-03-17T02:54:17.763Z,621.3
2023-03-17T02:55:19.980Z,621.2
2023-03-17T02:56:22.550Z,621.4
2023-03-17T02:57:25.051Z,621.5
2023-03-17T02:58:27.001Z,621.5
2023-03-17T02:59:29.539Z,621.5
2023-03-17T03:00:33.383Z,621.1
2023-03-17T03:01:36.356Z,621.3
2023-03-17T03:02:39.256Z,621.2
2023-03-17T03:03:41.594Z,621.3
2023-03-17T03:04:43.824Z,621.2
2023-03-17T03:05:46.049Z,621.2
2023-03-17T03:06:48.331Z,621
2023-03-17T03:07:50.540Z,620.6
2023-03-17T03:08:53.051Z,620.7
2023-03-17T03:09:55.561Z,620.5
2023-03-17T03:10:56.662Z,620.9
2023-03-17T03:11:59.155Z,620.8
2023-03-17T03:13:01.350Z,621.1
2023-03-17T03:14:03.861Z,621.1
2023-03-17T03:15:06.538Z,620.7
2023-03-17T03:16:09.292Z,620.8
2023-03-17T03:17:11.649Z,621
2023-03-17T03:18:14.168Z,621.4
2023-03-17T03:19:16.559Z,620.9
2023-03-17T03:20:18.787Z,621.2
2023-03-17T03:21:21.023Z,621.3
2023-03-17T03:22:23.544Z,621.5
2023-03-17T03:23:25.773Z,621.8
2023-03-17T03:24:27.429Z,621.9
2023-03-17T03:25:29.964Z,621.8
2023-03-17T03:26:32.507Z,621.6
2023-03-17T03:27:35.018Z,622
2023-03-17T03:28:37.513Z,622
2023-03-17T03:29:39.768Z,621.9
2023-03-17T03:30:42.457Z,622.2
2023-03-17T03:31:44.444Z,621.9
2023-03-17T03:32:47.383Z,621.7
2023-03-17T03:33:49.891Z,621.8
2023-03-17T03:34:52.199Z,621.3
2023-03-17T03:35:55.014Z,621
2023-03-17T03:36:57.592Z,621.4
2023-03-17T03:37:59.822Z,621.1
2023-03-17T03:39:02.046Z,620.9
2023-03-17T03:40:04.313Z,621.1
2023-03-17T03:41:06.928Z,621
2023-03-17T03:42:09.413Z,621.3
2023-03-17T03:44:16.891Z,621.5
2023-03-17T03:45:19.400Z,621.5
2023-03-17T03:46:21.852Z,621.4
2023-03-17T03:47:24.353Z,621.5
2023-03-17T03:48:26.900Z,621.3
2023-03-17T03:49:29.281Z,621.2
2023-03-17T03:50:33.367Z,620.8
2023-03-17T03:51:35.901Z,621.1
2023-03-17T03:52:37.835Z,621.2
2023-03-17T03:53:40.057Z,621.3
2023-03-17T03:54:42.541Z,621.4
2023-03-17T03:55:45.088Z,621.8
2023-03-17T03:56:47.283Z,621.7
2023-03-17T03:57:49.235Z,622
2023-03-17T03:58:51.461Z,622.3
2023-03-17T03:59:54.018Z,623.1
2023-03-17T04:00:56.238Z,622.4
2023-03-17T04:01:58.801Z,622.9
2023-03-17T04:03:01.666Z,623.2
2023-03-17T04:04:04.261Z,623
2023-03-17T04:05:06.252Z,622.9
2023-03-17T04:06:08.882Z,622.9
2023-03-17T04:07:11.544Z,623.3
2023-03-17T04:08:14.144Z,622.8
2023-03-17T04:09:16.660Z,623.5
2023-03-17T04:10:19.174Z,623.5
2023-03-17T04:11:21.648Z,623.1
2023-03-17T04:12:23.859Z,623.2
2023-03-17T04:13:26.379Z,623
2023-03-17T04:14:28.922Z,623.1
2023-03-17T04:15:31.153Z,623.2
2023-03-17T04:16:33.878Z,623.5
2023-03-17T04:17:36.413Z,623.2
2023-03-17T04:18:39.451Z,623.2
2023-03-17T04:19:42.027Z,623.3
2023-03-17T04:20:44.587Z,622.7
2023-03-17T04:21:47.175Z,622.7
2023-03-17T04:22:49.690Z,622.8
2023-03-17T04:23:51.947Z,622.7
2023-03-17T04:24:54.163Z,622.5
2023-03-17T04:25:56.712Z,622.9
2023-03-17T04:26:58.983Z,623.3
2023-03-17T04:28:01.202Z,622.5
2023-03-17T04:29:03.412Z,622.5
2023-03-17T04:30:05.614Z,623
2023-03-17T04:31:08.357Z,622.5
2023-03-17T04:32:10.596Z,622.5
2023-03-17T04:33:13.086Z,622.8
2023-03-17T04:34:15.293Z,622.3
2023-03-17T04:35:17.010Z,622.3
2023-03-17T04:36:19.225Z,622.4
2023-03-17T04:37:21.844Z,622.4
2023-03-17T04:38:24.107Z,622.1
2023-03-17T04:39:26.298Z,622.5
2023-03-17T04:40:29.392Z,622.3
2023-03-17T04:41:31.954Z,622.2
2023-03-17T04:42:34.528Z,622.3
2023-03-17T04:43:36.752Z,621.9
2023-03-17T04:44:38.970Z,622.2
2023-03-17T04:45:41.398Z,622.1
2023-03-17T04:46:43.642Z,621.9
2023-03-17T04:47:45.869Z,622.1
2023-03-17T04:48:48.405Z,621.9
2023-03-17T04:49:50.340Z,622
2023-03-17T04:50:52.571Z,622.1
2023-03-17T04:51:54.826Z,622.3
2023-03-17T04:52:57.505Z,622.2
2023-03-17T04:53:59.814Z,622.4
2023-03-17T04:55:02.334Z,622
2023-03-17T04:56:04.831Z,622
2023-03-17T04:57:07.389Z,622.4
2023-03-17T04:59:14.349Z,622.2
2023-03-17T05:00:16.661Z,622.5
2023-03-17T05:01:19.036Z,622.3
2023-03-17T05:02:21.908Z,622.3
2023-03-17T05:05:34.273Z,622.6
2023-03-17T05:06:36.495Z,622.7
2023-03-17T05:07:39.008Z,622.7
2023-03-17T05:08:41.616Z,622.3
2023-03-17T05:09:44.175Z,622.2
2023-03-17T05:10:46.425Z,622.1
2023-03-17T05:11:48.926Z,622
2023-03-17T05:12:51.432Z,621.8
2023-03-17T05:13:53.962Z,622.1
2023-03-17T05:14:56.265Z,622.5
2023-03-17T05:15:58.214Z,621.6
2023-03-17T05:17:00.442Z,622
2023-03-17T05:18:06.530Z,621.9
2023-03-17T05:19:08.765Z,622
2023-03-17T05:20:11.046Z,622.1
2023-03-17T05:21:13.263Z,621.7
2023-03-17T05:22:15.196Z,621.7
2023-03-17T05:23:17.433Z,622
2023-03-17T05:24:20.033Z,621.9
2023-03-17T05:25:22.525Z,621.7
2023-03-17T05:26:24.777Z,621.9
2023-03-17T05:27:27.001Z,622.2
2023-03-17T05:28:29.277Z,621.9
2023-03-17T05:29:31.763Z,621.9
2023-03-17T05:30:35.673Z,621.8
2023-03-17T05:31:37.958Z,621.7
2023-03-17T05:32:40.683Z,621.8
2023-03-17T05:33:43.232Z,621.7
2023-03-17T05:34:45.778Z,621.6
2023-03-17T05:35:48.316Z,621.7
2023-03-17T05:36:50.600Z,621.3
2023-03-17T05:37:52.562Z,621.9
2023-03-17T05:38:54.820Z,622
2023-03-17T05:39:57.420Z,622.3
2023-03-17T05:40:59.914Z,622.7
2023-03-17T05:42:02.131Z,622.8
2023-03-17T05:43:04.664Z,622.7
2023-03-17T05:44:07.181Z,622.7
2023-03-17T05:45:09.419Z,622.6
2023-03-17T05:46:12.207Z,622.9
2023-03-17T05:47:14.720Z,622.9
2023-03-17T05:48:17.218Z,623
2023-03-17T05:49:18.875Z,623
2023-03-17T05:50:21.434Z,622.9
2023-03-17T05:51:23.941Z,622.6
2023-03-17T05:52:26.429Z,622.9
2023-03-17T05:53:28.641Z,622.7
2023-03-17T05:54:30.593Z,622.7
2023-03-17T05:55:33.226Z,623
2023-03-17T05:56:35.797Z,623
2023-03-17T05:57:38.331Z,622.8
2023-03-17T05:58:40.561Z,623.3
2023-03-17T05:59:42.836Z,622.9
2023-03-17T06:00:45.392Z,623.1
2023-03-17T06:01:47.944Z,623.2
2023-03-17T06:02:50.177Z,623.1
2023-03-17T06:03:53.167Z,623.1
2023-03-17T06:04:55.708Z,623.5
2023-03-17T06:05:57.945Z,623.6
2023-03-17T06:07:00.177Z,624
2023-03-17T06:08:02.709Z,623.6
2023-03-17T06:09:05.228Z,623.5
2023-03-17T06:10:07.724Z,623.7
2023-03-17T06:11:10.326Z,623.7
2023-03-17T06:12:12.814Z,623.7
2023-03-17T06:13:15.052Z,623.6
2023-03-17T06:14:16.995Z,623.4
2023-03-17T06:15:19.537Z,623.4
2023-03-17T06:16:22.232Z,623.1
2023-03-17T06:17:24.509Z,623.3
2023-03-17T06:18:26.466Z,624.1
2023-03-17T06:19:28.690Z,623.7
2023-03-17T06:20:30.947Z,623.8
2023-03-17T06:21:33.184Z,623.9
2023-03-17T06:22:35.717Z,624.3
2023-03-17T06:23:38.246Z,623.8
2023-03-17T06:24:40.728Z,623.8
2023-03-17T06:25:43.248Z,624.3
2023-03-17T06:26:45.693Z,624.3
2023-03-17T06:27:48.197Z,624.5
2023-03-17T06:28:50.455Z,624.3
2023-03-17T06:29:52.716Z,624.3
2023-03-17T06:30:55.560Z,624.3
2023-03-17T06:33:03.588Z,624.3
2023-03-17T06:34:05.669Z,623.8
2023-03-17T06:35:07.662Z,623.7
2023-03-17T06:36:10.692Z,623.9
2023-03-17T06:37:13.857Z,623.8
2023-03-17T06:38:16.934Z,624.2
2023-03-17T06:39:19.476Z,623.9
2023-03-17T06:40:22.073Z,623.7
2023-03-17T06:41:24.293Z,623.2
2023-03-17T06:42:26.961Z,623.5
2023-03-17T06:43:29.528Z,623.7
2023-03-17T06:44:32.041Z,623.3
2023-03-17T06:45:35.599Z,623.5
2023-03-17T06:46:38.420Z,623.5
2023-03-17T06:47:41.013Z,623.3
2023-03-17T06:48:43.245Z,623.4
2023-03-17T06:49:45.535Z,623.2
2023-03-17T06:50:48.028Z,623.4
2023-03-17T06:51:50.311Z,623.6
2023-03-17T06:52:52.831Z,623.7
2023-03-17T06:53:55.072Z,623.4
2023-03-17T06:54:57.327Z,623.5
2023-03-17T06:55:59.614Z,623.6
2023-03-17T06:57:01.866Z,623.9
2023-03-17T06:58:04.492Z,623.7
2023-03-17T06:59:07.058Z,623.8
2023-03-17T07:00:09.562Z,624.1
2023-03-17T07:01:11.799Z,624
2023-03-17T07:02:13.946Z,624.2
2023-03-17T07:03:16.457Z,624.3
2023-03-17T07:04:18.926Z,624.4
2023-03-17T07:05:21.184Z,624.3
2023-03-17T07:06:23.438Z,624
2023-03-17T07:07:25.704Z,624.3
2023-03-17T07:08:28.204Z,624
2023-03-17T07:09:30.496Z,623.9
2023-03-17T07:10:33.021Z,624
2023-03-17T07:11:35.702Z,623.6
2023-03-17T07:12:38.064Z,623.3
2023-03-17T07:13:40.809Z,623.2
2023-03-17T07:14:43.512Z,623.4
2023-03-17T07:15:46.093Z,623.4
2023-03-17T07:16:49.256Z,623
2023-03-17T07:17:51.852Z,623.4
2023-03-17T07:18:53.779Z,623.6
2023-03-17T07:19:56.304Z,623.5
2023-03-17T07:20:58.805Z,623.4
2023-03-17T07:22:01.373Z,623.9
2023-03-17T07:23:03.695Z,623.8
2023-03-17T07:24:06.263Z,623.3
2023-03-17T07:25:08.858Z,623.4
2023-03-17T07:26:10.795Z,622.9
2023-03-17T07:27:13.083Z,622.8
2023-03-17T07:28:14.784Z,622.7
2023-03-17T07:29:17.102Z,623.5
2023-03-17T07:30:19.952Z,622.8
2023-03-17T07:31:22.525Z,622.9
2023-03-17T07:32:25.152Z,623.1
2023-03-17T07:33:27.438Z,623.2
2023-03-17T07:34:29.703Z,622.7
2023-03-17T07:35:35.023Z,623
2023-03-17T07:36:37.339Z,622.6
2023-03-17T07:37:39.850Z,622.5
2023-03-17T07:38:42.111Z,622.5
2023-03-17T07:39:44.482Z,622.7
2023-03-17T07:40:46.758Z,622.4
2023-03-17T07:41:49.417Z,622.4
2023-03-17T07:42:51.945Z,622.4
2023-03-17T07:43:54.601Z,622.4
2023-03-17T07:44:57.009Z,622.1
2023-03-17T07:45:59.512Z,622.2
2023-03-17T07:47:01.655Z,622.5
2023-03-17T07:48:03.923Z,622.3
2023-03-17T07:49:06.708Z,622.2
2023-03-17T07:50:09.212Z,622.3
2023-03-17T07:51:11.430Z,622.3
2023-03-17T07:52:14.387Z,622.2
2023-03-17T07:53:16.669Z,622.5
2023-03-17T07:54:19.232Z,622.4
2023-03-17T07:55:21.569Z,622.3
2023-03-17T07:56:24.143Z,622.4
2023-03-17T07:57:26.772Z,622.4
2023-03-17T07:58:29.414Z,622.4
2023-03-17T07:59:32.252Z,622.3
2023-03-17T08:00:36.803Z,622.7
2023-03-17T08:01:39.650Z,622.4
2023-03-17T08:02:42.636Z,622.4
2023-03-17T08:03:45.589Z,621.8
2023-03-17T08:04:48.188Z,622
2023-03-17T08:05:50.706Z,622
2023-03-17T08:06:52.951Z,621.8
2023-03-17T08:07:55.455Z,621.9
2023-03-17T08:08:58.078Z,622.1
2023-03-17T08:10:00.702Z,621.8
2023-03-17T08:11:02.740Z,621.6
2023-03-17T08:12:04.776Z,621.9
2023-03-17T08:13:07.048Z,621.4
2023-03-17T08:14:09.608Z,621.4
2023-03-17T08:15:12.110Z,621.7
2023-03-17T08:16:14.924Z,621.4
2023-03-17T08:17:17.499Z,621.4
2023-03-17T08:18:20.108Z,621.5
2023-03-17T08:19:22.746Z,621.6
2023-03-17T08:20:25.208Z,621.8
2023-03-17T08:21:27.778Z,621.6
2023-03-17T08:22:30.103Z,621.7
2023-03-17T08:23:31.723Z,621.9
2023-03-17T08:24:34.214Z,622
2023-03-17T08:25:36.561Z,622.4
2023-03-17T08:26:39.234Z,622.7
2023-03-17T08:27:41.316Z,623
2023-03-17T08:28:43.585Z,623.2
2023-03-17T08:29:45.953Z,623.3
2023-03-17T08:31:53.928Z,623.4
2023-03-17T08:32:56.836Z,623.5
2023-03-17T08:33:59.523Z,624
2023-03-17T08:35:01.820Z,623.7
2023-03-17T08:36:04.656Z,624
2023-03-17T08:37:10.855Z,624.1
2023-03-17T08:38:14.562Z,623.8
2023-03-17T08:39:17.089Z,623.9
2023-03-17T08:40:19.393Z,624.1
2023-03-17T08:41:21.957Z,623.6
2023-03-17T08:42:24.244Z,623.5
2023-03-17T08:43:26.812Z,623.9
2023-03-17T08:44:29.108Z,623.6
2023-03-17T08:45:33.359Z,623.6
2023-03-17T08:46:36.198Z,623.4
2023-03-17T08:47:38.848Z,623.2
2023-03-17T08:48:41.468Z,622.9
2023-03-17T08:49:44.047Z,622.7
2023-03-17T08:50:46.072Z,622.9
2023-03-17T08:51:48.620Z,623.2
2023-03-17T08:52:50.971Z,623
2023-03-17T08:53:53.547Z,623
2023-03-17T08:54:56.118Z,623
2023-03-17T08:55:58.091Z,623
2023-03-17T08:57:00.342Z,622.8
2023-03-17T08:58:02.942Z,623.1
2023-03-17T08:59:05.292Z,622.8
2023-03-17T09:00:07.533Z,623.3
2023-03-17T09:01:10.083Z,622.5
2023-03-17T09:02:12.902Z,622.7
2023-03-17T09:03:15.603Z,622.6
2023-03-17T09:04:18.186Z,622.2
2023-03-17T09:05:20.423Z,622.7
2023-03-17T09:06:23.067Z,622.4
2023-03-17T09:07:25.594Z,622.6
2023-03-17T09:08:27.586Z,623.2
2023-03-17T09:09:30.155Z,623.3
2023-03-17T09:10:34.298Z,623.5
2023-03-17T09:11:36.678Z,623.8
2023-03-17T09:12:39.304Z,623.9
2023-03-17T09:13:41.969Z,624
2023-03-17T09:14:49.886Z,624
2023-03-17T09:15:54.330Z,623.9
2023-03-17T09:16:56.638Z,624.3
2023-03-17T09:17:58.916Z,624.6
2023-03-17T09:19:01.843Z,624.6
2023-03-17T09:20:04.375Z,625.2
2023-03-17T09:21:06.706Z,625.4
2023-03-17T09:22:09.012Z,625.2
2023-03-17T09:23:11.602Z,625.5
2023-03-17T09:24:14.185Z,625.6
2023-03-17T09:25:16.754Z,625.3
2023-03-17T09:26:19.067Z,625.8
2023-03-17T09:27:21.358Z,624.9
2023-03-17T09:28:23.664Z,625.6
2023-03-17T09:29:25.652Z,625.7
2023-03-17T09:30:28.209Z,625.9
2023-03-17T09:31:31.060Z,625.7
2023-03-17T09:32:34.075Z,626.1
2023-03-17T09:33:36.647Z,626.2
2023-03-17T09:34:39.269Z,625.8
2023-03-17T09:35:42.329Z,626.1
2023-03-17T09:36:44.603Z,626.2
2023-03-17T09:37:47.232Z,626.5
2023-03-17T09:38:49.232Z,626.2
2023-03-17T09:39:51.782Z,626.1
2023-03-17T09:40:54.299Z,626.3
2023-03-17T09:41:56.856Z,626.2
2023-03-17T09:42:59.392Z,626.2
2023-03-17T09:44:01.691Z,626.4
2023-03-17T09:45:04.095Z,626.5
2023-03-17T09:46:07.541Z,626.2
2023-03-17T09:47:09.818Z,626.2
2023-03-17T09:48:12.099Z,626.4
2023-03-17T09:49:14.653Z,626.4
2023-03-17T09:50:17.306Z,626.7
2023-03-17T09:51:19.888Z,626.4
2023-03-17T09:52:22.171Z,626.8
2023-03-17T09:53:24.709Z,626.9
2023-03-17T09:54:27.259Z,626.5
2023-03-17T09:55:30.870Z,627.1
2023-03-17T09:56:33.561Z,626.4
2023-03-17T09:57:35.896Z,626.3
2023-03-17T09:58:38.197Z,626.9
2023-03-17T09:59:40.932Z,626.8
2023-03-17T10:00:43.498Z,626.2
2023-03-17T10:01:46.386Z,626.3
2023-03-17T10:02:48.723Z,626
2023-03-17T10:03:51.267Z,626.4
2023-03-17T10:04:54.397Z,626.6
2023-03-17T10:05:57.057Z,626.7
2023-03-17T10:06:59.560Z,626.5
2023-03-17T10:08:01.542Z,626.9
2023-03-17T10:09:03.525Z,626.9
2023-03-17T10:10:06.137Z,626.5
2023-03-17T10:11:08.409Z,626.4
2023-03-17T10:12:10.775Z,627.1
2023-03-17T10:13:13.042Z,626.9
2023-03-17T10:14:15.590Z,627
2023-03-17T10:15:18.898Z,627.5
2023-03-17T10:16:21.381Z,628.1
2023-03-17T10:17:23.790Z,628.2
2023-03-17T10:18:26.333Z,628.4
2023-03-17T10:19:28.352Z,628.6
2023-03-17T10:20:30.637Z,628.8
2023-03-17T10:21:33.290Z,628.8
2023-03-17T10:22:35.874Z,628.7
2023-03-17T10:23:38.490Z,628.8
2023-03-17T10:24:41.112Z,628.5
2023-03-17T10:25:43.495Z,628.8
2023-03-17T10:26:46.037Z,628.4
2023-03-17T10:27:48.567Z,628.1
2023-03-17T10:28:50.863Z,627.8
2023-03-17T10:29:53.382Z,627.8
2023-03-17T10:30:55.918Z,627.8
2023-03-17T10:32:00.858Z,627.7
2023-03-17T10:33:03.214Z,627.3
2023-03-17T10:34:05.571Z,627.6
2023-03-17T10:35:08.151Z,627.3
2023-03-17T10:36:10.939Z,626.8
2023-03-17T10:37:13.638Z,627.1
2023-03-17T10:38:16.832Z,627.3
2023-03-17T10:39:19.378Z,627.7
2023-03-17T10:40:21.900Z,627.6
2023-03-17T10:41:24.528Z,628.1
2023-03-17T10:42:27.171Z,628.1
2023-03-17T10:43:29.620Z,628.1
2023-03-17T10:44:32.169Z,628
2023-03-17T10:45:34.741Z,628.7
2023-03-17T10:46:37.584Z,628.7
2023-03-17T10:47:39.539Z,628.4
2023-03-17T10:48:41.875Z,628.4
2023-03-17T10:49:44.410Z,628.5
2023-03-17T10:50:52.837Z,629.1
2023-03-17T10:51:55.186Z,628.6
2023-03-17T10:52:57.841Z,629
2023-03-17T10:53:59.859Z,629.1
2023-03-17T10:55:01.561Z,629
2023-03-17T10:56:03.867Z,629.2
2023-03-17T10:57:06.158Z,629.2
2023-03-17T10:58:08.737Z,629.1
2023-03-17T10:59:11.547Z,629
2023-03-17T11:00:14.095Z,629
2023-03-17T11:01:16.985Z,629.2
2023-03-17T11:02:18.976Z,629.1
2023-03-17T11:03:21.497Z,629.2
2023-03-17T11:04:23.962Z,629.6
2023-03-17T11:05:26.512Z,630.1
2023-03-17T11:06:28.769Z,630
2023-03-17T11:07:31.316Z,629.9
2023-03-17T11:08:34.040Z,630.1
2023-03-17T11:09:36.568Z,629.9
2023-03-17T11:10:39.127Z,630.4
2023-03-17T11:11:41.404Z,630
2023-03-17T11:12:43.972Z,630.2
2023-03-17T11:13:45.925Z,630.5
2023-03-17T11:14:48.471Z,630.4
2023-03-17T11:15:51.012Z,630.5
2023-03-17T11:16:53.608Z,630.5
2023-03-17T11:17:56.148Z,630.6
2023-03-17T11:18:58.133Z,630.3
2023-03-17T11:20:00.389Z,630.7
2023-03-17T11:21:02.994Z,630.8
2023-03-17T11:22:05.292Z,630.7
2023-03-17T11:23:07.556Z,630.9
2023-03-17T11:24:10.251Z,630.9
2023-03-17T11:25:12.568Z,631
2023-03-17T11:26:14.535Z,631.4
2023-03-17T11:27:16.808Z,631.5
2023-03-17T11:28:19.094Z,631.7
2023-03-17T11:29:21.613Z,631.7
2023-03-17T11:30:24.363Z,631.4
2023-03-17T11:31:27.180Z,632.1
2023-03-17T11:32:29.910Z,631.9
2023-03-17T11:33:32.229Z,631.7
2023-03-17T11:34:34.473Z,632.1
2023-03-17T11:35:37.293Z,632
2023-03-17T11:36:39.813Z,632.2
2023-03-17T11:37:42.436Z,632.4
2023-03-17T11:38:44.988Z,632.2
2023-03-17T11:39:47.621Z,632.3
2023-03-17T11:40:50.152Z,633
2023-03-17T11:41:52.669Z,632.9
2023-03-17T11:42:58.108Z,633
2023-03-17T11:44:00.372Z,633.1
2023-03-17T11:45:02.976Z,633.3
2023-03-17T11:46:05.480Z,633.4
2023-03-17T11:47:07.831Z,633.5
2023-03-17T11:48:10.390Z,633.4
2023-03-17T11:49:12.984Z,633.3
2023-03-17T11:50:15.618Z,633.4
2023-03-17T11:51:18.164Z,632.9
2023-03-17T11:52:20.698Z,633.5
2023-03-17T11:53:23.322Z,633.5
2023-03-17T11:54:25.576Z,633.7
2023-03-17T11:55:28.205Z,633.5
2023-03-17T11:56:30.533Z,633.5
2023-03-17T11:57:33.079Z,633.5
2023-03-17T11:58:35.380Z,633.4
2023-03-17T11:59:37.621Z,633.5
2023-03-17T12:00:42.740Z,633.8
2023-03-17T12:01:45.413Z,633.5
2023-03-17T12:02:47.710Z,634.4
2023-03-17T12:03:51.006Z,634.3
2023-03-17T12:04:53.703Z,634.2
2023-03-17T12:05:56.277Z,634.6
2023-03-17T12:06:58.900Z,634.9
2023-03-17T12:08:01.224Z,634.7
2023-03-17T12:09:03.794Z,634.9
2023-03-17T12:10:06.106Z,635.4
2023-03-17T12:11:08.728Z,635.8
2023-03-17T12:12:10.982Z,635.5
2023-03-17T12:13:13.537Z,635.1
2023-03-17T12:14:16.088Z,635.8
2023-03-17T12:15:18.028Z,635.7
2023-03-17T12:16:20.759Z,635.3
2023-03-17T12:18:30.937Z,635.6
2023-03-17T12:19:33.491Z,635.9
2023-03-17T12:20:36.169Z,635.7
2023-03-17T12:21:37.898Z,636.2
2023-03-17T12:22:39.921Z,636.2
2023-03-17T12:23:42.167Z,636.5
2023-03-17T12:24:44.466Z,636
2023-03-17T12:25:46.735Z,636.3
2023-03-17T12:26:49.379Z,635.9
2023-03-17T12:27:51.893Z,636.1
2023-03-17T12:28:57.381Z,636.3
2023-03-17T12:29:59.984Z,636.2
2023-03-17T12:31:02.966Z,636.7
2023-03-17T12:32:05.594Z,636.4
2023-03-17T12:33:08.652Z,636.7
2023-03-17T12:34:10.967Z,636.8
2023-03-17T12:35:13.221Z,636.6
2023-03-17T12:36:15.524Z,637
2023-03-17T12:37:17.777Z,637.3
2023-03-17T12:38:20.202Z,637.6
2023-03-17T12:39:22.821Z,637.6
2023-03-17T12:41:30.414Z,637.4
2023-03-17T12:42:33.011Z,637.7
2023-03-17T12:43:35.268Z,638
2023-03-17T12:44:37.509Z,637.6
2023-03-17T12:45:39.767Z,637.4
2023-03-17T12:46:42.750Z,637.8
2023-03-17T12:47:45.513Z,637.3
2023-03-17T12:48:47.763Z,637.7
2023-03-17T12:49:50.284Z,637.4
2023-03-17T12:50:52.821Z,637.6
2023-03-17T12:51:54.770Z,638
2023-03-17T12:52:57.277Z,637.6
2023-03-17T12:53:59.563Z,637.6
2023-03-17T12:55:02.109Z,637.8
2023-03-17T12:56:04.640Z,637.8
2023-03-17T12:57:07.192Z,637.9
2023-03-17T12:58:09.825Z,638
2023-03-17T12:59:12.352Z,638.1
2023-03-17T13:00:14.961Z,638.3
2023-03-17T13:01:17.911Z,638.6
2023-03-17T13:02:20.460Z,638.4
2023-03-17T13:03:23.333Z,639.1
2023-03-17T13:05:31.941Z,638.9
2023-03-17T13:06:34.585Z,639.2
2023-03-17T13:07:37.112Z,639
2023-03-17T13:08:39.640Z,638.9
2023-03-17T13:09:41.630Z,639
2023-03-17T13:10:44.249Z,639
2023-03-17T13:11:46.224Z,639.5
2023-03-17T13:12:48.808Z,639.3
2023-03-17T13:13:51.466Z,639.2
2023-03-17T13:14:53.988Z,639.5
2023-03-17T13:15:56.482Z,639.4
2023-03-17T13:16:58.811Z,639.7
2023-03-17T13:18:01.349Z,639.4
2023-03-17T13:19:03.627Z,639.8
2023-03-17T13:20:05.865Z,639.6
2023-03-17T13:21:08.119Z,639.6
2023-03-17T13:22:10.347Z,639.2
2023-03-17T13:23:12.331Z,639.5
2023-03-17T13:24:15.006Z,639.2
2023-03-17T13:25:17.325Z,639.6
2023-03-17T13:26:19.379Z,639.1
2023-03-17T13:27:21.637Z,639.6
2023-03-17T13:28:23.588Z,639.4
2023-03-17T13:29:25.936Z,639.6
2023-03-17T13:30:28.098Z,639.7
2023-03-17T13:31:30.462Z,639.7
2023-03-17T13:32:32.976Z,640.2
2023-03-17T13:33:35.783Z,639.8
2023-03-17T13:34:38.286Z,640.2
2023-03-17T13:35:41.182Z,639.9
2023-03-17T13:36:43.721Z,640.2
2023-03-17T13:37:45.988Z,640.4
2023-03-17T13:39:56.222Z,639.9
2023-03-17T13:40:58.923Z,640.2
2023-03-17T13:43:06.505Z,639.7